createdAt,value
2022-08-29T00:02:17.978Z,61.28
2022-08-29T00:04:48.759Z,61.76
2022-08-29T00:07:19.479Z,61.39
2022-08-29T00:09:49.942Z,60.87
2022-08-29T00:12:20.380Z,62.50
2022-08-29T00:14:52.036Z,61.20
2022-08-29T00:17:22.283Z,60.65
2022-08-29T00:19:52.653Z,60.80
2022-08-29T00:22:22.897Z,60.49
2022-08-29T00:24:53.124Z,60.52
2022-08-29T00:27:23.725Z,59.92
2022-08-29T00:29:54.693Z,59.89
2022-08-29T00:32:25.381Z,59.24
2022-08-29T00:34:55.915Z,59.41
2022-08-29T00:37:27.203Z,59.43
2022-08-29T00:39:59.075Z,58.87
2022-08-29T00:42:30.025Z,59.18
2022-08-29T00:45:00.425Z,59.62
2022-08-29T00:47:35.755Z,60.24
2022-08-29T00:50:10.299Z,58.79
2022-08-29T00:52:48.974Z,59.14
2022-08-29T00:55:23.970Z,58.58
2022-08-29T00:58:00.822Z,58.75
2022-08-29T01:00:32.364Z,59.20
2022-08-29T01:03:04.338Z,59.46
2022-08-29T01:05:36.378Z,59.39
2022-08-29T01:08:10.055Z,59.12
2022-08-29T01:10:59.090Z,59.11
2022-08-29T01:13:36.375Z,59.00
2022-08-29T01:16:08.604Z,60.08
2022-08-29T01:18:41.296Z,58.44
2022-08-29T01:21:33.191Z,59.60
2022-08-29T01:24:18.573Z,58.92
2022-08-29T01:26:49.757Z,58.58
2022-08-29T01:29:20.003Z,59.28
2022-08-29T01:31:57.240Z,58.83
2022-08-29T01:34:28.934Z,58.51
2022-08-29T01:37:05.832Z,58.42
2022-08-29T01:39:39.205Z,59.22
2022-08-29T01:42:13.560Z,58.76
2022-08-29T01:44:49.751Z,59.67
2022-08-29T01:47:20.706Z,58.98
2022-08-29T01:49:50.665Z,58.92
2022-08-29T01:52:21.908Z,58.75
2022-08-29T01:54:52.042Z,58.31
2022-08-29T01:57:22.701Z,58.92
2022-08-29T01:59:53.031Z,58.24
2022-08-29T02:02:27.781Z,58.27
2022-08-29T02:05:00.804Z,58.69
2022-08-29T02:07:31.133Z,58.07
2022-08-29T02:10:01.336Z,58.38
2022-08-29T02:12:32.883Z,58.60
2022-08-29T02:15:03.635Z,57.89
2022-08-29T02:17:34.208Z,57.25
2022-08-29T02:20:06.242Z,57.39
2022-08-29T02:22:40.572Z,57.08
2022-08-29T02:25:30.522Z,57.97
2022-08-29T02:28:01.104Z,57.17
2022-08-29T02:30:31.415Z,58.32
2022-08-29T02:33:00.814Z,57.07
2022-08-29T02:35:35.996Z,57.63
2022-08-29T02:38:08.661Z,57.65
2022-08-29T02:40:39.747Z,57.55
2022-08-29T02:43:10.596Z,56.00
2022-08-29T02:45:43.689Z,57.86
2022-08-29T02:48:14.884Z,57.11
2022-08-29T02:50:51.680Z,56.87
2022-08-29T02:53:27.210Z,56.07
2022-08-29T02:55:57.579Z,57.31
2022-08-29T02:58:28.820Z,57.48
2022-08-29T03:00:59.129Z,57.47
2022-08-29T03:03:29.864Z,56.87
2022-08-29T03:05:59.203Z,56.95
2022-08-29T03:08:29.152Z,57.19
2022-08-29T03:10:59.574Z,55.77
2022-08-29T03:13:30.202Z,56.77
2022-08-29T03:16:01.335Z,57.44
2022-08-29T03:18:32.295Z,57.33
2022-08-29T03:21:03.207Z,57.02
2022-08-29T03:23:33.391Z,56.89
2022-08-29T03:26:03.844Z,56.74
2022-08-29T03:28:34.025Z,56.22
2022-08-29T03:31:04.860Z,56.66
2022-08-29T03:33:35.029Z,56.42
2022-08-29T03:39:30.740Z,56.60
2022-08-29T03:42:13.193Z,56.19
2022-08-29T03:44:59.139Z,56.87
2022-08-29T03:50:28.299Z,57.07
2022-08-29T03:53:19.330Z,56.88
2022-08-29T03:56:18.791Z,56.67
2022-08-29T03:58:53.234Z,55.62
2022-08-29T04:01:27.388Z,56.30
2022-08-29T04:10:20.845Z,55.83
2022-08-29T04:12:54.497Z,56.01
2022-08-29T04:15:27.313Z,56.68
2022-08-29T04:18:02.007Z,56.35
2022-08-29T04:20:35.835Z,55.95
2022-08-29T04:23:06.374Z,56.03
2022-08-29T04:25:39.825Z,54.92
2022-08-29T04:28:14.302Z,56.19
2022-08-29T04:30:51.362Z,55.87
2022-08-29T04:33:24.770Z,55.68
2022-08-29T04:35:55.450Z,54.65
2022-08-29T04:38:25.496Z,55.29
2022-08-29T04:40:55.574Z,55.58
2022-08-29T04:43:25.823Z,55.59
2022-08-29T04:45:59.625Z,55.49
2022-08-29T04:48:30.981Z,55.82
2022-08-29T04:51:03.369Z,55.41
2022-08-29T04:53:34.005Z,55.26
2022-08-29T04:56:08.879Z,56.01
2022-08-29T04:58:43.559Z,54.62
2022-08-29T05:01:20.401Z,55.24
2022-08-29T05:03:51.120Z,55.54
2022-08-29T05:06:23.454Z,55.93
2022-08-29T05:08:59.095Z,53.20
2022-08-29T05:11:33.020Z,54.70
2022-08-29T05:14:03.905Z,53.63
2022-08-29T05:16:38.563Z,54.36
2022-08-29T05:19:09.806Z,54.57
2022-08-29T05:21:42.147Z,55.15
2022-08-29T05:24:14.128Z,55.18
2022-08-29T05:26:46.939Z,54.22
2022-08-29T05:29:16.968Z,54.06
2022-08-29T05:31:47.724Z,55.66
2022-08-29T05:34:34.792Z,54.62
2022-08-29T05:37:09.135Z,53.85
2022-08-29T05:39:41.692Z,55.09
2022-08-29T05:42:13.785Z,54.71
2022-08-29T05:44:44.639Z,54.71
2022-08-29T05:47:17.409Z,54.68
2022-08-29T05:49:49.343Z,54.28
2022-08-29T05:52:22.272Z,54.25
2022-08-29T05:54:53.005Z,54.34
2022-08-29T05:57:25.589Z,53.09
2022-08-29T05:59:56.716Z,53.07
2022-08-29T06:02:36.714Z,53.06
2022-08-29T06:05:18.749Z,53.35
2022-08-29T06:07:49.742Z,53.72
2022-08-29T06:10:20.055Z,54.41
2022-08-29T06:12:50.104Z,53.36
2022-08-29T06:15:20.208Z,53.83
2022-08-29T06:17:50.916Z,54.44
2022-08-29T06:20:20.935Z,54.02
2022-08-29T06:22:50.925Z,53.83
2022-08-29T06:25:39.818Z,53.53
2022-08-29T06:28:10.719Z,52.94
2022-08-29T06:30:43.322Z,53.58
2022-08-29T06:33:13.532Z,53.72
2022-08-29T06:35:43.456Z,53.55
2022-08-29T06:38:14.206Z,52.93
2022-08-29T06:40:45.006Z,54.03
2022-08-29T06:43:15.498Z,53.31
2022-08-29T06:45:46.608Z,52.14
2022-08-29T06:48:17.279Z,53.04
2022-08-29T06:50:48.109Z,52.92
2022-08-29T06:53:27.554Z,53.99
2022-08-29T06:56:11.912Z,54.08
2022-08-29T06:58:41.901Z,54.00
2022-08-29T07:01:15.744Z,53.52
2022-08-29T07:03:46.234Z,54.17
2022-08-29T07:06:18.014Z,52.91
2022-08-29T07:08:55.805Z,52.93
2022-08-29T07:11:28.391Z,51.74
2022-08-29T07:14:01.484Z,52.94
2022-08-29T07:16:32.622Z,51.96
2022-08-29T07:19:04.491Z,53.45
2022-08-29T07:21:35.266Z,54.07
2022-08-29T07:24:06.427Z,53.59
2022-08-29T07:26:42.663Z,53.39
2022-08-29T07:29:17.820Z,53.45
2022-08-29T07:31:49.240Z,53.14
2022-08-29T07:34:21.149Z,53.33
2022-08-29T07:36:56.073Z,54.01
2022-08-29T07:39:29.811Z,54.03
2022-08-29T07:42:08.628Z,53.86
2022-08-29T07:44:39.436Z,54.23
2022-08-29T07:47:12.784Z,54.25
2022-08-29T07:49:43.789Z,53.60
2022-08-29T07:52:13.982Z,53.27
2022-08-29T07:54:44.703Z,53.25
2022-08-29T07:57:17.846Z,53.05
2022-08-29T07:59:48.486Z,53.05
2022-08-29T08:02:18.100Z,53.56
2022-08-29T08:04:48.413Z,53.06
2022-08-29T08:07:22.782Z,52.10
2022-08-29T08:10:00.440Z,53.27
2022-08-29T08:12:31.079Z,52.67
2022-08-29T08:15:02.159Z,52.57
2022-08-29T08:17:32.808Z,52.53
2022-08-29T08:20:03.467Z,52.32
2022-08-29T08:22:34.133Z,53.30
2022-08-29T08:25:06.532Z,52.85
2022-08-29T08:27:41.238Z,52.86
2022-08-29T08:30:14.743Z,52.99
2022-08-29T08:32:49.573Z,52.93
2022-08-29T08:35:23.147Z,53.19
2022-08-29T08:37:54.592Z,53.63
2022-08-29T08:40:31.748Z,53.55
2022-08-29T08:43:04.782Z,52.97
2022-08-29T08:45:47.430Z,53.26
2022-08-29T08:48:25.009Z,53.50
2022-08-29T08:51:17.958Z,53.51
2022-08-29T08:53:54.036Z,53.76
2022-08-29T08:56:45.785Z,53.14
2022-08-29T08:59:19.773Z,53.64
2022-08-29T09:02:14.282Z,53.39
2022-08-29T09:04:53.828Z,53.36
2022-08-29T09:07:48.215Z,53.59
2022-08-29T09:10:38.233Z,53.63
2022-08-29T09:13:26.575Z,54.23
2022-08-29T09:16:01.449Z,54.18
2022-08-29T09:18:54.080Z,53.91
2022-08-29T09:21:42.118Z,54.45
2022-08-29T09:24:19.824Z,53.69
2022-08-29T09:26:50.902Z,54.24
2022-08-29T09:29:22.296Z,54.08
2022-08-29T09:32:22.759Z,54.00
2022-08-29T09:35:09.658Z,54.13
2022-08-29T09:37:40.743Z,54.60
2022-08-29T09:40:15.831Z,54.15
2022-08-29T09:43:04.295Z,54.50
2022-08-29T09:45:34.570Z,54.49
2022-08-29T09:48:19.034Z,54.04
2022-08-29T09:50:49.500Z,54.87
2022-08-29T09:53:25.897Z,54.15
2022-08-29T09:55:56.190Z,54.75
2022-08-29T09:58:26.439Z,54.56
2022-08-29T10:01:12.887Z,54.38
2022-08-29T10:03:53.735Z,55.09
2022-08-29T10:06:27.620Z,54.60
2022-08-29T10:09:22.352Z,54.99
2022-08-29T10:12:07.841Z,54.44
2022-08-29T10:14:54.821Z,55.04
2022-08-29T10:17:56.597Z,54.71
2022-08-29T10:20:53.836Z,54.48
2022-08-29T10:23:46.247Z,54.17
2022-08-29T10:26:48.419Z,54.33
2022-08-29T10:29:59.414Z,54.43
2022-08-29T10:32:46.109Z,54.63
2022-08-29T10:35:26.192Z,54.78
2022-08-29T10:38:16.071Z,54.57
2022-08-29T10:40:46.772Z,55.12
2022-08-29T10:43:47.032Z,54.40
2022-08-29T10:46:46.365Z,54.68
2022-08-29T10:49:46.367Z,55.53
2022-08-29T10:52:46.872Z,54.92
2022-08-29T10:56:15.612Z,54.38
2022-08-29T10:59:16.579Z,55.28
2022-08-29T11:05:52.383Z,54.57
2022-08-29T11:09:12.970Z,54.60
2022-08-29T11:11:51.203Z,55.16
2022-08-29T11:14:30.800Z,54.94
2022-08-29T11:17:03.510Z,55.37
2022-08-29T11:20:38.539Z,55.22
2022-08-29T11:23:40.946Z,56.06
2022-08-29T11:26:42.376Z,55.41
2022-08-29T11:33:19.856Z,55.41
2022-08-29T11:36:26.956Z,55.29
2022-08-29T11:39:19.839Z,55.81
2022-08-29T11:41:58.754Z,56.74
2022-08-29T11:44:37.869Z,57.36
2022-08-29T11:47:33.904Z,55.87
2022-08-29T11:50:17.104Z,55.95
2022-08-29T11:53:01.960Z,56.13
2022-08-29T11:55:42.053Z,58.29
2022-08-29T11:58:18.568Z,56.99
2022-08-29T12:00:55.936Z,57.36
2022-08-29T12:03:37.295Z,57.07
2022-08-29T12:06:28.351Z,56.27
2022-08-29T12:09:52.268Z,56.44
2022-08-29T12:12:48.573Z,56.65
2022-08-29T12:15:33.694Z,56.98
2022-08-29T12:18:14.748Z,57.40
2022-08-29T12:20:51.466Z,58.54
2022-08-29T12:23:46.885Z,56.73
2022-08-29T12:26:48.447Z,56.78
2022-08-29T12:29:25.871Z,58.32
2022-08-29T12:32:22.588Z,57.33
2022-08-29T12:35:25.238Z,58.19
2022-08-29T12:38:15.541Z,58.90
2022-08-29T12:41:09.280Z,57.82
2022-08-29T12:43:46.101Z,57.73
2022-08-29T12:46:31.311Z,57.50
2022-08-29T12:49:17.328Z,57.76
2022-08-29T12:51:52.720Z,58.53
2022-08-29T12:54:46.031Z,57.63
2022-08-29T12:57:30.933Z,58.66
2022-08-29T13:00:32.495Z,58.59
2022-08-29T13:03:52.610Z,59.06
2022-08-29T13:09:43.898Z,57.42
2022-08-29T13:12:17.070Z,59.12
2022-08-29T13:14:59.735Z,59.23
2022-08-29T13:17:39.372Z,58.09
2022-08-29T13:20:43.325Z,57.83
2022-08-29T13:23:19.175Z,58.67
2022-08-29T13:25:52.863Z,59.34
2022-08-29T13:29:00.123Z,58.97
2022-08-29T13:31:39.217Z,58.67
2022-08-29T13:34:09.493Z,59.69
2022-08-29T13:37:01.593Z,58.76
2022-08-29T13:39:41.085Z,59.73
2022-08-29T13:42:21.396Z,59.33
2022-08-29T13:44:53.083Z,59.44
2022-08-29T13:47:35.037Z,58.74
2022-08-29T13:50:11.160Z,60.15
2022-08-29T13:52:41.300Z,60.54
2022-08-29T13:55:12.171Z,60.36
2022-08-29T13:57:43.584Z,60.94
2022-08-29T14:00:14.973Z,60.89
2022-08-29T14:02:45.750Z,60.43
2022-08-29T14:05:22.151Z,60.46
2022-08-29T14:07:54.007Z,59.47
2022-08-29T14:10:24.682Z,59.87
2022-08-29T14:12:54.730Z,60.03
2022-08-29T14:15:24.782Z,59.86
2022-08-29T14:17:54.967Z,61.25
2022-08-29T14:20:25.808Z,61.69
2022-08-29T14:22:56.001Z,61.44
2022-08-29T14:25:26.889Z,61.58
2022-08-29T14:27:57.066Z,61.62
2022-08-29T14:30:27.804Z,61.49
2022-08-29T14:32:57.944Z,61.41
2022-08-29T14:35:31.923Z,60.67
2022-08-29T14:41:08.751Z,61.88
2022-08-29T14:44:20.202Z,59.16
2022-08-29T14:46:51.954Z,60.59
2022-08-29T14:49:22.341Z,60.86
2022-08-29T14:51:52.862Z,61.52
2022-08-29T14:54:22.969Z,60.84
2022-08-29T14:56:55.607Z,61.46
2022-08-29T14:59:26.901Z,61.30
2022-08-29T15:01:58.067Z,61.21
2022-08-29T15:04:35.528Z,60.20
2022-08-29T15:07:13.372Z,60.13
2022-08-29T15:09:45.369Z,60.75
2022-08-29T15:12:19.185Z,61.00
2022-08-29T15:14:51.361Z,61.48
2022-08-29T15:17:21.975Z,60.41
2022-08-29T15:22:48.715Z,60.60
2022-08-29T15:25:20.368Z,61.73
2022-08-29T15:27:50.061Z,61.71
2022-08-29T15:30:26.512Z,61.47
2022-08-29T15:32:56.887Z,61.80
2022-08-29T15:35:28.298Z,60.94
2022-08-29T15:37:58.950Z,60.46
2022-08-29T15:40:30.143Z,60.62
2022-08-29T15:43:00.571Z,59.44
2022-08-29T15:45:32.043Z,60.55
2022-08-29T15:48:03.420Z,61.19
2022-08-29T15:50:33.978Z,62.58
2022-08-29T15:53:05.936Z,60.75
2022-08-29T15:55:35.948Z,62.33
2022-08-29T15:58:07.379Z,61.19
2022-08-29T16:00:37.420Z,61.72
2022-08-29T16:03:08.994Z,61.40
2022-08-29T16:05:41.482Z,60.98
2022-08-29T16:08:12.944Z,61.66
2022-08-29T16:10:47.729Z,61.28
2022-08-29T16:13:18.205Z,61.15
2022-08-29T16:15:50.361Z,61.04
2022-08-29T16:18:20.533Z,61.28
2022-08-29T16:20:50.120Z,62.14
2022-08-29T16:23:22.928Z,62.62
2022-08-29T16:25:52.920Z,62.93
2022-08-29T16:28:23.176Z,62.25
2022-08-29T16:30:54.611Z,61.48
2022-08-29T16:33:25.044Z,62.95
2022-08-29T16:35:55.725Z,63.05
2022-08-29T16:38:25.804Z,62.18
2022-08-29T16:40:56.119Z,62.01
2022-08-29T16:43:26.646Z,61.89
2022-08-29T16:45:56.657Z,61.92
2022-08-29T16:48:26.695Z,61.36
2022-08-29T16:50:56.915Z,62.15
2022-08-29T16:53:27.653Z,61.86
2022-08-29T16:55:57.860Z,62.29
2022-08-29T16:58:46.177Z,61.91
2022-08-29T17:01:15.621Z,60.75
2022-08-29T17:03:45.489Z,61.91
2022-08-29T17:06:15.472Z,62.13
2022-08-29T17:08:45.516Z,63.00
2022-08-29T17:11:15.310Z,61.84
2022-08-29T17:13:45.499Z,62.38
2022-08-29T17:16:16.170Z,62.48
2022-08-29T17:18:48.096Z,62.02
2022-08-29T17:21:18.886Z,61.30
2022-08-29T17:23:49.755Z,63.09
2022-08-29T17:26:21.317Z,63.55
2022-08-29T17:28:52.558Z,62.44
2022-08-29T17:31:23.506Z,62.37
2022-08-29T17:33:55.073Z,63.22
2022-08-29T17:36:25.268Z,62.52
2022-08-29T17:38:55.300Z,61.90
2022-08-29T17:41:25.277Z,62.31
2022-08-29T17:43:55.575Z,62.34
2022-08-29T17:46:25.733Z,62.01
2022-08-29T17:48:55.251Z,60.46
2022-08-29T17:51:25.464Z,63.63
2022-08-29T17:53:55.757Z,62.05
2022-08-29T17:56:46.112Z,61.03
2022-08-29T17:59:17.856Z,63.53
2022-08-29T18:01:48.474Z,62.17
2022-08-29T18:04:19.055Z,61.85
2022-08-29T18:06:49.117Z,63.10
2022-08-29T18:09:19.838Z,64.04
2022-08-29T18:11:52.097Z,63.18
2022-08-29T18:14:25.000Z,61.54
2022-08-29T18:16:56.246Z,62.27
2022-08-29T18:19:28.352Z,62.27
2022-08-29T18:21:58.379Z,62.38
2022-08-29T18:24:28.731Z,61.99
2022-08-29T18:26:58.763Z,62.64
2022-08-29T18:29:28.815Z,62.81
2022-08-29T18:31:58.950Z,62.94
2022-08-29T18:34:29.852Z,62.53
2022-08-29T18:36:59.972Z,62.87
2022-08-29T18:39:31.256Z,62.60
2022-08-29T18:42:13.357Z,62.66
2022-08-29T18:45:01.219Z,62.54
2022-08-29T18:47:31.617Z,62.79
2022-08-29T18:50:20.543Z,62.41
2022-08-29T18:52:56.337Z,62.44
2022-08-29T18:55:27.061Z,63.11
2022-08-29T18:57:58.462Z,63.18
2022-08-29T19:00:29.447Z,62.56
2022-08-29T19:03:08.581Z,62.42
2022-08-29T19:05:42.258Z,62.50
2022-08-29T19:08:13.234Z,62.29
2022-08-29T19:10:46.599Z,62.38
2022-08-29T19:13:18.187Z,63.46
2022-08-29T19:15:49.838Z,61.95
2022-08-29T19:18:20.242Z,62.29
2022-08-29T19:21:09.237Z,63.05
2022-08-29T19:23:42.856Z,62.63
2022-08-29T19:26:18.751Z,62.87
2022-08-29T19:28:49.634Z,63.02
2022-08-29T19:31:20.572Z,63.68
2022-08-29T19:33:50.875Z,61.96
2022-08-29T19:36:21.004Z,63.10
2022-08-29T19:38:51.661Z,62.32
2022-08-29T19:41:21.816Z,61.72
2022-08-29T19:43:52.886Z,62.70
2022-08-29T19:46:25.466Z,62.37
2022-08-29T19:48:58.745Z,62.58
2022-08-29T19:51:34.042Z,62.94
2022-08-29T19:54:07.418Z,61.99
2022-08-29T19:56:37.579Z,62.42
2022-08-29T19:59:07.759Z,62.57
2022-08-29T20:01:38.325Z,62.67
2022-08-29T20:04:08.892Z,63.13
2022-08-29T20:06:41.554Z,62.57
2022-08-29T20:09:14.075Z,62.29
2022-08-29T20:11:44.271Z,62.20
2022-08-29T20:14:14.641Z,62.59
2022-08-29T20:16:46.276Z,62.59
2022-08-29T20:19:17.171Z,62.64
2022-08-29T20:21:47.541Z,63.11
2022-08-29T20:24:18.184Z,62.47
2022-08-29T20:26:49.252Z,63.02
2022-08-29T20:29:21.075Z,63.11
2022-08-29T20:31:51.604Z,63.11
2022-08-29T20:34:22.023Z,64.39
2022-08-29T20:37:10.983Z,63.12
2022-08-29T20:39:47.453Z,62.61
2022-08-29T20:42:22.006Z,62.72
2022-08-29T20:44:52.930Z,62.56
2022-08-29T20:47:25.106Z,62.73
2022-08-29T20:49:58.142Z,63.10
2022-08-29T20:52:28.877Z,63.58
2022-08-29T20:54:58.138Z,62.35
2022-08-29T20:57:28.513Z,63.43
2022-08-29T20:59:59.019Z,63.96
2022-08-29T21:02:47.617Z,63.85
2022-08-29T21:05:36.694Z,62.93
2022-08-29T21:08:07.822Z,63.07
2022-08-29T21:10:39.277Z,63.19
2022-08-29T21:13:10.394Z,63.51
2022-08-29T21:15:42.845Z,63.60
2022-08-29T21:18:15.818Z,63.27
2022-08-29T21:20:56.542Z,63.04
2022-08-29T21:23:28.008Z,63.60
2022-08-29T21:26:02.218Z,63.46
2022-08-29T21:28:38.023Z,63.69
2022-08-29T21:31:13.167Z,63.35
2022-08-29T21:33:46.772Z,62.91
2022-08-29T21:36:21.066Z,62.76
2022-08-29T21:38:56.737Z,62.61
2022-08-29T21:41:29.680Z,64.04
2022-08-29T21:44:00.632Z,63.94
2022-08-29T21:46:34.108Z,63.92
2022-08-29T21:49:09.034Z,63.17
2022-08-29T21:51:39.961Z,63.13
2022-08-29T21:54:13.413Z,63.83
2022-08-29T21:56:45.301Z,63.90
2022-08-29T21:59:18.340Z,64.06
2022-08-29T22:01:54.833Z,64.11
2022-08-29T22:04:28.834Z,63.73
2022-08-29T22:07:00.996Z,64.62
2022-08-29T22:09:33.739Z,64.06
2022-08-29T22:12:05.078Z,64.10
2022-08-29T22:14:54.056Z,64.09
2022-08-29T22:17:24.955Z,63.76
2022-08-29T22:19:55.653Z,63.54
2022-08-29T22:22:25.868Z,64.15
2022-08-29T22:24:55.984Z,64.42
2022-08-29T22:27:26.551Z,63.54
2022-08-29T22:29:56.271Z,64.17
2022-08-29T22:32:27.415Z,63.42
2022-08-29T22:35:08.232Z,63.46
2022-08-29T22:37:38.455Z,63.44
2022-08-29T22:40:16.329Z,63.99
2022-08-29T22:42:47.653Z,63.36
2022-08-29T22:45:20.093Z,63.60
2022-08-29T22:47:50.190Z,63.57
2022-08-29T22:50:24.683Z,65.05
2022-08-29T22:53:00.159Z,63.08
2022-08-29T22:58:01.667Z,63.26
2022-08-29T23:00:31.689Z,64.32
2022-08-29T23:03:04.323Z,63.74
2022-08-29T23:05:34.479Z,63.91
2022-08-29T23:08:03.846Z,64.56
2022-08-29T23:10:33.876Z,65.17
2022-08-29T23:13:03.961Z,63.36
2022-08-29T23:15:34.001Z,64.24
2022-08-29T23:18:05.838Z,65.34
2022-08-29T23:20:35.776Z,63.59
2022-08-29T23:23:08.498Z,63.54
2022-08-29T23:25:38.914Z,63.41
2022-08-29T23:28:09.634Z,64.10
2022-08-29T23:30:40.357Z,63.62
2022-08-29T23:33:10.626Z,66.04
2022-08-29T23:35:39.911Z,64.29
2022-08-29T23:38:09.975Z,63.37
2022-08-29T23:40:41.197Z,63.95
2022-08-29T23:43:12.291Z,63.29
2022-08-29T23:45:42.964Z,63.31
2022-08-29T23:48:13.188Z,63.92
2022-08-29T23:50:45.360Z,63.09
2022-08-29T23:53:19.701Z,63.73
2022-08-29T23:55:49.738Z,63.23
2022-08-29T23:58:21.034Z,64.76
